Terminal Aerodrome Forecast
Issued by NWS

Home | Current Version | Previous Version | Text Only | Print | Product List | Glossary On
Versions: 1 2 3 4 5 6 7 8 9 10 11 12 13
000
FTUS46 KSGX 061459 AAA
TAFPSP
TAF AMD
KPSP 061459Z 0615/0712 VRB06KT P6SM SKC
     FM061900 32012G22KT P6SM SKC
     FM070500 VRB06KT P6SM SKC=

USA.gov is the U.S. government's official web portal to all federal, state and local government web resources and services.